sensor_id;sensor_type;location;lat;lon;timestamp;pressure;altitude;pressure_sealevel;temperature;humidity
73516;BME280;61763;51.416;5.442;2023-07-31T00:01:52;101041.72;;;15.47;100.00
73516;BME280;61763;51.416;5.442;2023-07-31T00:04:17;101042.56;;;15.35;100.00
73516;BME280;61763;51.416;5.442;2023-07-31T00:06:43;101037.38;;;15.45;100.00
73516;BME280;61763;51.416;5.442;2023-07-31T00:09:08;101040.97;;;15.45;100.00
73516;BME280;61763;51.416;5.442;2023-07-31T00:11:33;101047.59;;;15.41;100.00
73516;BME280;61763;51.416;5.442;2023-07-31T00:13:59;101036.59;;;15.42;100.00
73516;BME280;61763;51.416;5.442;2023-07-31T00:16:24;101043.31;;;15.37;100.00
73516;BME280;61763;51.416;5.442;2023-07-31T00:18:50;101038.78;;;15.37;100.00
73516;BME280;61763;51.416;5.442;2023-07-31T00:21:15;101035.94;;;15.39;100.00
73516;BME280;61763;51.416;5.442;2023-07-31T00:23:40;101035.75;;;15.42;100.00
73516;BME280;61763;51.416;5.442;2023-07-31T00:26:06;101032.81;;;15.45;100.00
73516;BME280;61763;51.416;5.442;2023-07-31T00:28:32;101029.63;;;15.38;100.00
73516;BME280;61763;51.416;5.442;2023-07-31T00:30:58;101031.47;;;15.38;100.00
73516;BME280;61763;51.416;5.442;2023-07-31T00:33:23;101030.72;;;15.36;100.00
73516;BME280;61763;51.416;5.442;2023-07-31T00:35:48;101028.66;;;15.39;100.00
73516;BME280;61763;51.416;5.442;2023-07-31T00:38:14;101024.97;;;15.40;100.00
73516;BME280;61763;51.416;5.442;2023-07-31T00:40:39;101025.81;;;15.41;100.00
73516;BME280;61763;51.416;5.442;2023-07-31T00:43:05;101016.81;;;15.40;100.00
73516;BME280;61763;51.416;5.442;2023-07-31T00:45:30;101010.59;;;15.38;100.00
73516;BME280;61763;51.416;5.442;2023-07-31T00:47:56;101009.72;;;15.38;100.00
73516;BME280;61763;51.416;5.442;2023-07-31T00:50:26;101008.53;;;15.42;100.00
73516;BME280;61763;51.416;5.442;2023-07-31T00:52:53;101012.75;;;15.33;100.00
73516;BME280;61763;51.416;5.442;2023-07-31T00:55:19;101012.66;;;15.35;100.00
73516;BME280;61763;51.416;5.442;2023-07-31T00:57:45;101012.13;;;15.30;100.00
73516;BME280;61763;51.416;5.442;2023-07-31T01:00:11;101005.47;;;15.34;100.00
73516;BME280;61763;51.416;5.442;2023-07-31T01:02:37;101007.31;;;15.33;100.00
73516;BME280;61763;51.416;5.442;2023-07-31T01:05:03;101007.63;;;15.29;100.00
73516;BME280;61763;51.416;5.442;2023-07-31T01:07:42;100997.72;;;15.28;100.00
73516;BME280;61763;51.416;5.442;2023-07-31T01:10:21;100993.06;;;15.30;100.00
73516;BME280;61763;51.416;5.442;2023-07-31T01:12:50;101007.97;;;15.24;100.00
73516;BME280;61763;51.416;5.442;2023-07-31T01:15:16;100995.13;;;15.26;100.00
73516;BME280;61763;51.416;5.442;2023-07-31T01:17:43;101000.19;;;15.18;100.00
73516;BME280;61763;51.416;5.442;2023-07-31T01:20:17;100999.13;;;15.20;100.00
73516;BME280;61763;51.416;5.442;2023-07-31T01:28:13;101002.03;;;15.17;100.00
73516;BME280;61763;51.416;5.442;2023-07-31T01:30:45;100988.44;;;15.17;100.00
73516;BME280;61763;51.416;5.442;2023-07-31T01:33:14;100994.75;;;15.18;100.00
73516;BME280;61763;51.416;5.442;2023-07-31T01:35:44;100991.06;;;15.19;100.00
73516;BME280;61763;51.416;5.442;2023-07-31T01:38:09;100995.28;;;15.10;100.00
73516;BME280;61763;51.416;5.442;2023-07-31T01:40:35;100986.69;;;15.03;100.00
73516;BME280;61763;51.416;5.442;2023-07-31T01:43:00;100984.41;;;15.10;100.00
73516;BME280;61763;51.416;5.442;2023-07-31T01:45:26;100992.00;;;15.05;100.00
73516;BME280;61763;51.416;5.442;2023-07-31T01:47:52;100981.13;;;15.05;100.00
73516;BME280;61763;51.416;5.442;2023-07-31T01:50:17;100986.06;;;15.13;100.00
73516;BME280;61763;51.416;5.442;2023-07-31T01:52:42;100979.66;;;15.14;100.00
73516;BME280;61763;51.416;5.442;2023-07-31T01:55:08;100976.34;;;15.09;100.00
73516;BME280;61763;51.416;5.442;2023-07-31T01:57:33;100973.09;;;15.03;100.00
73516;BME280;61763;51.416;5.442;2023-07-31T01:59:59;100980.34;;;15.03;100.00
73516;BME280;61763;51.416;5.442;2023-07-31T02:02:24;100971.22;;;15.04;100.00
73516;BME280;61763;51.416;5.442;2023-07-31T02:04:50;100950.25;;;15.06;100.00
73516;BME280;61763;51.416;5.442;2023-07-31T02:07:15;100966.00;;;15.01;100.00
73516;BME280;61763;51.416;5.442;2023-07-31T02:09:40;100957.09;;;14.99;100.00
73516;BME280;61763;51.416;5.442;2023-07-31T02:12:06;100946.88;;;15.02;100.00
73516;BME280;61763;51.416;5.442;2023-07-31T02:14:34;100938.81;;;15.01;100.00
73516;BME280;61763;51.416;5.442;2023-07-31T02:16:59;100930.34;;;15.05;100.00
73516;BME280;61763;51.416;5.442;2023-07-31T02:19:25;100936.75;;;14.92;100.00
73516;BME280;61763;51.416;5.442;2023-07-31T02:21:50;100939.34;;;14.93;100.00
73516;BME280;61763;51.416;5.442;2023-07-31T02:24:15;100942.72;;;14.97;100.00
73516;BME280;61763;51.416;5.442;2023-07-31T02:26:41;100920.66;;;15.01;100.00
73516;BME280;61763;51.416;5.442;2023-07-31T02:29:07;100938.94;;;14.99;100.00
73516;BME280;61763;51.416;5.442;2023-07-31T02:31:33;100930.78;;;14.99;100.00
73516;BME280;61763;51.416;5.442;2023-07-31T02:33:58;100928.44;;;15.07;100.00
73516;BME280;61763;51.416;5.442;2023-07-31T02:36:23;100907.75;;;15.05;100.00
73516;BME280;61763;51.416;5.442;2023-07-31T02:38:49;100917.94;;;15.01;100.00
73516;BME280;61763;51.416;5.442;2023-07-31T02:41:14;100913.72;;;14.97;100.00
73516;BME280;61763;51.416;5.442;2023-07-31T02:43:40;100915.44;;;14.98;100.00
73516;BME280;61763;51.416;5.442;2023-07-31T02:46:05;100908.81;;;15.02;100.00
73516;BME280;61763;51.416;5.442;2023-07-31T02:48:31;100907.53;;;15.08;100.00
73516;BME280;61763;51.416;5.442;2023-07-31T02:50:56;100910.38;;;15.06;100.00
73516;BME280;61763;51.416;5.442;2023-07-31T02:53:22;100914.84;;;15.07;100.00
73516;BME280;61763;51.416;5.442;2023-07-31T02:55:49;100913.72;;;15.10;100.00
73516;BME280;61763;51.416;5.442;2023-07-31T02:58:14;100911.81;;;15.12;100.00
73516;BME280;61763;51.416;5.442;2023-07-31T03:00:43;100904.72;;;15.10;100.00
73516;BME280;61763;51.416;5.442;2023-07-31T03:03:08;100907.97;;;15.15;100.00
73516;BME280;61763;51.416;5.442;2023-07-31T03:05:34;100910.28;;;15.21;100.00
73516;BME280;61763;51.416;5.442;2023-07-31T03:07:59;100899.22;;;15.24;100.00
73516;BME280;61763;51.416;5.442;2023-07-31T03:10:25;100900.72;;;15.28;100.00
73516;BME280;61763;51.416;5.442;2023-07-31T03:12:50;100897.25;;;15.26;100.00
73516;BME280;61763;51.416;5.442;2023-07-31T03:15:15;100892.66;;;15.27;100.00
73516;BME280;61763;51.416;5.442;2023-07-31T03:17:41;100904.19;;;15.17;100.00
73516;BME280;61763;51.416;5.442;2023-07-31T03:20:07;100907.56;;;15.21;100.00
73516;BME280;61763;51.416;5.442;2023-07-31T03:22:33;100895.06;;;15.18;100.00
73516;BME280;61763;51.416;5.442;2023-07-31T03:25:00;100895.16;;;15.17;100.00
73516;BME280;61763;51.416;5.442;2023-07-31T03:27:26;100914.94;;;15.19;100.00
73516;BME280;61763;51.416;5.442;2023-07-31T03:29:51;100896.28;;;15.27;100.00
73516;BME280;61763;51.416;5.442;2023-07-31T03:32:17;100894.75;;;15.23;100.00
73516;BME280;61763;51.416;5.442;2023-07-31T03:34:42;100894.41;;;15.28;100.00
73516;BME280;61763;51.416;5.442;2023-07-31T03:37:07;100886.59;;;15.23;100.00
73516;BME280;61763;51.416;5.442;2023-07-31T03:39:34;100880.50;;;15.32;100.00
73516;BME280;61763;51.416;5.442;2023-07-31T03:42:00;100880.06;;;15.38;100.00
73516;BME280;61763;51.416;5.442;2023-07-31T03:44:26;100873.97;;;15.35;100.00
73516;BME280;61763;51.416;5.442;2023-07-31T03:46:52;100873.00;;;15.36;100.00
73516;BME280;61763;51.416;5.442;2023-07-31T03:49:17;100873.13;;;15.34;100.00
73516;BME280;61763;51.416;5.442;2023-07-31T03:51:42;100867.56;;;15.36;100.00
73516;BME280;61763;51.416;5.442;2023-07-31T03:54:08;100871.03;;;15.38;100.00
73516;BME280;61763;51.416;5.442;2023-07-31T03:56:33;100869.19;;;15.38;100.00
73516;BME280;61763;51.416;5.442;2023-07-31T03:58:59;100857.56;;;15.49;100.00
73516;BME280;61763;51.416;5.442;2023-07-31T04:01:24;100860.41;;;15.48;100.00
73516;BME280;61763;51.416;5.442;2023-07-31T04:03:50;100854.84;;;15.62;100.00
73516;BME280;61763;51.416;5.442;2023-07-31T04:06:15;100859.00;;;15.55;100.00
73516;BME280;61763;51.416;5.442;2023-07-31T04:08:43;100853.31;;;15.58;100.00
73516;BME280;61763;51.416;5.442;2023-07-31T04:11:09;100847.66;;;15.61;100.00
73516;BME280;61763;51.416;5.442;2023-07-31T04:13:34;100828.19;;;15.67;100.00
73516;BME280;61763;51.416;5.442;2023-07-31T04:16:00;100827.31;;;15.67;100.00
73516;BME280;61763;51.416;5.442;2023-07-31T04:18:25;100827.94;;;15.70;100.00
73516;BME280;61763;51.416;5.442;2023-07-31T04:20:51;100823.06;;;15.75;100.00
73516;BME280;61763;51.416;5.442;2023-07-31T04:23:16;100831.56;;;15.71;100.00
73516;BME280;61763;51.416;5.442;2023-07-31T04:25:42;100829.94;;;15.81;100.00
73516;BME280;61763;51.416;5.442;2023-07-31T04:28:07;100827.09;;;15.83;100.00
73516;BME280;61763;51.416;5.442;2023-07-31T04:30:33;100827.75;;;15.86;100.00
73516;BME280;61763;51.416;5.442;2023-07-31T04:32:58;100818.59;;;15.87;100.00
73516;BME280;61763;51.416;5.442;2023-07-31T04:35:24;100825.13;;;15.85;100.00
73516;BME280;61763;51.416;5.442;2023-07-31T04:37:49;100815.44;;;15.81;100.00
73516;BME280;61763;51.416;5.442;2023-07-31T04:40:15;100820.66;;;15.84;100.00
73516;BME280;61763;51.416;5.442;2023-07-31T04:42:43;100814.25;;;15.85;100.00
73516;BME280;61763;51.416;5.442;2023-07-31T04:45:09;100816.75;;;15.88;100.00
73516;BME280;61763;51.416;5.442;2023-07-31T04:47:34;100807.94;;;15.84;100.00
73516;BME280;61763;51.416;5.442;2023-07-31T04:50:00;100806.09;;;15.85;100.00
73516;BME280;61763;51.416;5.442;2023-07-31T04:52:25;100810.09;;;15.92;100.00
73516;BME280;61763;51.416;5.442;2023-07-31T04:54:51;100811.31;;;15.88;100.00
73516;BME280;61763;51.416;5.442;2023-07-31T04:57:16;100804.00;;;15.88;100.00
73516;BME280;61763;51.416;5.442;2023-07-31T04:59:41;100810.22;;;15.90;100.00
73516;BME280;61763;51.416;5.442;2023-07-31T05:02:08;100808.25;;;15.92;100.00
73516;BME280;61763;51.416;5.442;2023-07-31T05:04:33;100809.91;;;15.82;100.00
73516;BME280;61763;51.416;5.442;2023-07-31T05:06:59;100808.94;;;15.83;100.00
73516;BME280;61763;51.416;5.442;2023-07-31T05:09:25;100798.31;;;15.91;100.00
73516;BME280;61763;51.416;5.442;2023-07-31T05:11:52;100796.72;;;15.89;100.00
73516;BME280;61763;51.416;5.442;2023-07-31T05:14:17;100794.56;;;15.81;100.00
73516;BME280;61763;51.416;5.442;2023-07-31T05:16:43;100797.81;;;15.86;100.00
73516;BME280;61763;51.416;5.442;2023-07-31T05:19:08;100797.19;;;15.83;100.00
73516;BME280;61763;51.416;5.442;2023-07-31T05:21:34;100791.06;;;15.79;100.00
73516;BME280;61763;51.416;5.442;2023-07-31T05:23:59;100793.69;;;15.81;100.00
73516;BME280;61763;51.416;5.442;2023-07-31T05:26:24;100792.81;;;15.80;100.00
73516;BME280;61763;51.416;5.442;2023-07-31T05:28:50;100790.97;;;15.81;100.00
73516;BME280;61763;51.416;5.442;2023-07-31T05:31:15;100794.34;;;15.84;100.00
73516;BME280;61763;51.416;5.442;2023-07-31T05:33:41;100792.59;;;15.83;100.00
73516;BME280;61763;51.416;5.442;2023-07-31T05:36:06;100794.56;;;15.81;100.00
73516;BME280;61763;51.416;5.442;2023-07-31T05:38:31;100796.19;;;15.84;100.00
73516;BME280;61763;51.416;5.442;2023-07-31T05:40:57;100797.56;;;15.76;100.00
73516;BME280;61763;51.416;5.442;2023-07-31T05:43:22;100781.81;;;15.69;100.00
73516;BME280;61763;51.416;5.442;2023-07-31T05:45:47;100797.28;;;15.81;100.00
73516;BME280;61763;51.416;5.442;2023-07-31T05:48:13;100793.69;;;15.81;100.00
73516;BME280;61763;51.416;5.442;2023-07-31T05:50:38;100795.06;;;15.73;100.00
73516;BME280;61763;51.416;5.442;2023-07-31T05:53:05;100797.16;;;15.70;100.00
73516;BME280;61763;51.416;5.442;2023-07-31T05:55:31;100805.44;;;15.68;100.00
73516;BME280;61763;51.416;5.442;2023-07-31T05:57:57;100787.59;;;15.64;100.00
73516;BME280;61763;51.416;5.442;2023-07-31T06:00:22;100782.16;;;15.64;100.00
73516;BME280;61763;51.416;5.442;2023-07-31T06:02:48;100789.34;;;15.65;100.00
73516;BME280;61763;51.416;5.442;2023-07-31T06:05:14;100793.16;;;15.63;100.00
73516;BME280;61763;51.416;5.442;2023-07-31T06:07:39;100782.84;;;15.55;100.00
73516;BME280;61763;51.416;5.442;2023-07-31T06:10:05;100796.94;;;15.60;100.00
73516;BME280;61763;51.416;5.442;2023-07-31T06:12:34;100781.19;;;15.52;100.00
73516;BME280;61763;51.416;5.442;2023-07-31T06:15:01;100783.16;;;15.50;100.00
73516;BME280;61763;51.416;5.442;2023-07-31T06:17:26;100792.28;;;15.49;100.00
73516;BME280;61763;51.416;5.442;2023-07-31T06:19:52;100779.91;;;15.45;100.00
73516;BME280;61763;51.416;5.442;2023-07-31T06:22:18;100776.72;;;15.51;100.00
73516;BME280;61763;51.416;5.442;2023-07-31T06:24:43;100782.16;;;15.51;100.00
73516;BME280;61763;51.416;5.442;2023-07-31T06:27:11;100769.66;;;15.49;100.00
73516;BME280;61763;51.416;5.442;2023-07-31T06:29:36;100777.91;;;15.60;100.00
73516;BME280;61763;51.416;5.442;2023-07-31T06:32:02;100777.38;;;15.55;100.00
73516;BME280;61763;51.416;5.442;2023-07-31T06:34:27;100777.06;;;15.59;100.00
73516;BME280;61763;51.416;5.442;2023-07-31T06:36:53;100773.38;;;15.61;100.00
73516;BME280;61763;51.416;5.442;2023-07-31T06:39:18;100771.50;;;15.61;100.00
73516;BME280;61763;51.416;5.442;2023-07-31T06:41:43;100760.81;;;15.71;100.00
73516;BME280;61763;51.416;5.442;2023-07-31T06:44:09;100758.84;;;15.73;100.00
73516;BME280;61763;51.416;5.442;2023-07-31T06:46:34;100762.31;;;15.75;100.00
73516;BME280;61763;51.416;5.442;2023-07-31T06:49:00;100759.47;;;15.76;100.00
73516;BME280;61763;51.416;5.442;2023-07-31T06:51:25;100751.22;;;15.78;100.00
73516;BME280;61763;51.416;5.442;2023-07-31T06:53:50;100754.94;;;15.77;100.00
73516;BME280;61763;51.416;5.442;2023-07-31T06:56:16;100757.66;;;15.77;100.00
73516;BME280;61763;51.416;5.442;2023-07-31T06:58:41;100748.09;;;15.71;100.00
73516;BME280;61763;51.416;5.442;2023-07-31T07:01:06;100752.75;;;15.69;100.00
73516;BME280;61763;51.416;5.442;2023-07-31T07:03:32;100756.34;;;15.70;100.00
73516;BME280;61763;51.416;5.442;2023-07-31T07:05:58;100755.69;;;15.79;100.00
73516;BME280;61763;51.416;5.442;2023-07-31T07:08:24;100754.84;;;15.79;100.00
73516;BME280;61763;51.416;5.442;2023-07-31T07:10:49;100754.50;;;15.83;100.00
73516;BME280;61763;51.416;5.442;2023-07-31T07:13:14;100740.44;;;15.89;100.00
73516;BME280;61763;51.416;5.442;2023-07-31T07:15:40;100736.63;;;15.92;100.00
73516;BME280;61763;51.416;5.442;2023-07-31T07:18:05;100746.00;;;15.88;100.00
73516;BME280;61763;51.416;5.442;2023-07-31T07:20:30;100737.19;;;15.84;100.00
73516;BME280;61763;51.416;5.442;2023-07-31T07:22:56;100735.72;;;15.91;100.00
73516;BME280;61763;51.416;5.442;2023-07-31T07:25:22;100738.03;;;15.98;100.00
73516;BME280;61763;51.416;5.442;2023-07-31T07:27:48;100733.09;;;16.03;100.00
73516;BME280;61763;51.416;5.442;2023-07-31T07:30:13;100730.28;;;15.91;100.00
73516;BME280;61763;51.416;5.442;2023-07-31T07:32:39;100723.63;;;15.96;100.00
73516;BME280;61763;51.416;5.442;2023-07-31T07:35:06;100723.28;;;16.00;100.00
73516;BME280;61763;51.416;5.442;2023-07-31T07:37:32;100730.09;;;15.94;100.00
73516;BME280;61763;51.416;5.442;2023-07-31T07:39:57;100733.47;;;15.85;100.00
73516;BME280;61763;51.416;5.442;2023-07-31T07:42:23;100732.63;;;15.85;100.00
73516;BME280;61763;51.416;5.442;2023-07-31T07:44:48;100739.34;;;15.92;100.00
73516;BME280;61763;51.416;5.442;2023-07-31T07:47:13;100733.78;;;15.93;100.00
73516;BME280;61763;51.416;5.442;2023-07-31T07:49:39;100737.38;;;15.94;100.00
73516;BME280;61763;51.416;5.442;2023-07-31T07:52:04;100728.34;;;15.93;100.00
73516;BME280;61763;51.416;5.442;2023-07-31T07:54:30;100725.75;;;15.92;100.00
73516;BME280;61763;51.416;5.442;2023-07-31T07:56:56;100732.03;;;15.92;100.00
73516;BME280;61763;51.416;5.442;2023-07-31T07:59:21;100727.88;;;16.00;100.00
73516;BME280;61763;51.416;5.442;2023-07-31T08:01:47;100727.63;;;16.03;100.00
73516;BME280;61763;51.416;5.442;2023-07-31T08:04:12;100724.28;;;15.99;100.00
73516;BME280;61763;51.416;5.442;2023-07-31T08:06:38;100724.91;;;16.03;100.00
73516;BME280;61763;51.416;5.442;2023-07-31T08:09:03;100735.31;;;15.98;100.00
73516;BME280;61763;51.416;5.442;2023-07-31T08:11:32;100719.47;;;16.03;100.00
73516;BME280;61763;51.416;5.442;2023-07-31T08:13:57;100729.91;;;16.09;100.00
73516;BME280;61763;51.416;5.442;2023-07-31T08:16:22;100730.78;;;16.09;100.00
73516;BME280;61763;51.416;5.442;2023-07-31T08:18:48;100721.09;;;16.05;100.00
73516;BME280;61763;51.416;5.442;2023-07-31T08:21:14;100720.59;;;16.24;100.00
73516;BME280;61763;51.416;5.442;2023-07-31T08:23:41;100711.44;;;16.25;100.00
73516;BME280;61763;51.416;5.442;2023-07-31T08:26:06;100709.22;;;16.31;100.00
73516;BME280;61763;51.416;5.442;2023-07-31T08:28:32;100713.03;;;16.28;100.00
73516;BME280;61763;51.416;5.442;2023-07-31T08:30:57;100711.13;;;16.17;100.00
73516;BME280;61763;51.416;5.442;2023-07-31T08:33:23;100716.69;;;16.16;100.00
73516;BME280;61763;51.416;5.442;2023-07-31T08:35:48;100717.72;;;16.02;100.00
73516;BME280;61763;51.416;5.442;2023-07-31T08:38:15;100722.09;;;16.04;100.00
73516;BME280;61763;51.416;5.442;2023-07-31T08:40:40;100718.25;;;16.07;100.00
73516;BME280;61763;51.416;5.442;2023-07-31T08:43:07;100712.59;;;16.10;100.00
73516;BME280;61763;51.416;5.442;2023-07-31T08:45:32;100721.09;;;16.05;100.00
73516;BME280;61763;51.416;5.442;2023-07-31T08:47:59;100709.47;;;16.03;100.00
73516;BME280;61763;51.416;5.442;2023-07-31T08:50:24;100708.59;;;16.03;100.00
73516;BME280;61763;51.416;5.442;2023-07-31T08:52:51;100714.09;;;16.14;100.00
73516;BME280;61763;51.416;5.442;2023-07-31T08:55:17;100718.72;;;16.25;100.00
73516;BME280;61763;51.416;5.442;2023-07-31T08:57:43;100705.88;;;16.27;100.00
73516;BME280;61763;51.416;5.442;2023-07-31T09:00:09;100697.72;;;16.38;100.00
73516;BME280;61763;51.416;5.442;2023-07-31T09:05:29;100695.81;;;16.63;100.00
73516;BME280;61763;51.416;5.442;2023-07-31T09:07:55;100684.69;;;16.66;100.00
73516;BME280;61763;51.416;5.442;2023-07-31T09:10:21;100692.34;;;16.72;100.00
73516;BME280;61763;51.416;5.442;2023-07-31T09:12:47;100696.09;;;16.82;100.00
73516;BME280;61763;51.416;5.442;2023-07-31T09:15:13;100693.00;;;16.76;100.00
73516;BME280;61763;51.416;5.442;2023-07-31T09:17:39;100686.81;;;16.85;100.00
73516;BME280;61763;51.416;5.442;2023-07-31T09:20:21;100678.88;;;16.82;100.00
73516;BME280;61763;51.416;5.442;2023-07-31T09:22:47;100682.34;;;16.84;100.00
73516;BME280;61763;51.416;5.442;2023-07-31T09:25:22;100677.44;;;16.89;100.00
73516;BME280;61763;51.416;5.442;2023-07-31T09:27:54;100669.16;;;17.02;100.00
73516;BME280;61763;51.416;5.442;2023-07-31T09:30:21;100679.19;;;17.13;100.00
73516;BME280;61763;51.416;5.442;2023-07-31T09:32:48;100670.63;;;17.29;100.00
73516;BME280;61763;51.416;5.442;2023-07-31T09:35:27;100664.03;;;17.43;100.00
73516;BME280;61763;51.416;5.442;2023-07-31T09:37:57;100654.72;;;17.57;100.00
73516;BME280;61763;51.416;5.442;2023-07-31T09:40:35;100660.41;;;17.65;100.00
73516;BME280;61763;51.416;5.442;2023-07-31T09:43:03;100656.94;;;17.63;100.00
73516;BME280;61763;51.416;5.442;2023-07-31T09:45:30;100660.19;;;17.57;100.00
73516;BME280;61763;51.416;5.442;2023-07-31T09:47:56;100657.09;;;17.50;100.00
73516;BME280;61763;51.416;5.442;2023-07-31T09:50:24;100653.38;;;17.40;100.00
73516;BME280;61763;51.416;5.442;2023-07-31T09:52:51;100660.06;;;17.36;100.00
73516;BME280;61763;51.416;5.442;2023-07-31T09:55:17;100653.38;;;17.51;100.00
73516;BME280;61763;51.416;5.442;2023-07-31T09:57:48;100664.28;;;17.51;100.00
73516;BME280;61763;51.416;5.442;2023-07-31T10:00:16;100657.22;;;17.37;100.00
73516;BME280;61763;51.416;5.442;2023-07-31T10:02:46;100656.63;;;17.33;100.00
73516;BME280;61763;51.416;5.442;2023-07-31T10:05:14;100648.91;;;17.50;100.00
73516;BME280;61763;51.416;5.442;2023-07-31T10:07:51;100655.50;;;17.36;100.00
73516;BME280;61763;51.416;5.442;2023-07-31T10:10:17;100651.03;;;17.35;100.00
73516;BME280;61763;51.416;5.442;2023-07-31T10:12:45;100656.25;;;17.38;100.00
73516;BME280;61763;51.416;5.442;2023-07-31T10:15:12;100657.34;;;17.36;100.00
73516;BME280;61763;51.416;5.442;2023-07-31T10:17:40;100651.28;;;17.32;100.00
73516;BME280;61763;51.416;5.442;2023-07-31T10:20:06;100653.25;;;17.41;100.00
73516;BME280;61763;51.416;5.442;2023-07-31T10:22:32;100646.81;;;17.42;100.00
73516;BME280;61763;51.416;5.442;2023-07-31T10:24:59;100638.63;;;17.42;100.00
73516;BME280;61763;51.416;5.442;2023-07-31T10:27:25;100649.81;;;17.39;100.00
73516;BME280;61763;51.416;5.442;2023-07-31T10:29:52;100640.84;;;17.60;100.00
73516;BME280;61763;51.416;5.442;2023-07-31T10:32:19;100641.16;;;17.66;100.00
73516;BME280;61763;51.416;5.442;2023-07-31T10:34:45;100644.97;;;17.98;100.00
73516;BME280;61763;51.416;5.442;2023-07-31T10:40:25;100638.00;;;18.05;100.00
73516;BME280;61763;51.416;5.442;2023-07-31T10:42:56;100640.19;;;18.11;100.00
73516;BME280;61763;51.416;5.442;2023-07-31T10:45:37;100633.72;;;18.12;100.00
73516;BME280;61763;51.416;5.442;2023-07-31T10:48:07;100632.81;;;18.23;100.00
73516;BME280;61763;51.416;5.442;2023-07-31T10:50:37;100639.41;;;18.63;100.00
73516;BME280;61763;51.416;5.442;2023-07-31T10:53:03;100635.03;;;18.81;100.00
73516;BME280;61763;51.416;5.442;2023-07-31T10:55:41;100637.91;;;19.01;100.00
73516;BME280;61763;51.416;5.442;2023-07-31T10:58:13;100624.38;;;18.78;100.00
73516;BME280;61763;51.416;5.442;2023-07-31T11:00:41;100612.03;;;18.84;100.00
73516;BME280;61763;51.416;5.442;2023-07-31T11:03:10;100621.91;;;18.75;100.00
73516;BME280;61763;51.416;5.442;2023-07-31T11:10:44;100608.19;;;18.65;100.00
73516;BME280;61763;51.416;5.442;2023-07-31T11:13:10;100628.88;;;18.58;100.00
73516;BME280;61763;51.416;5.442;2023-07-31T11:15:35;100619.06;;;18.55;100.00
73516;BME280;61763;51.416;5.442;2023-07-31T11:18:01;100623.25;;;18.81;100.00
73516;BME280;61763;51.416;5.442;2023-07-31T11:20:36;100615.66;;;18.63;100.00
73516;BME280;61763;51.416;5.442;2023-07-31T11:23:03;100618.72;;;18.70;100.00
73516;BME280;61763;51.416;5.442;2023-07-31T11:25:32;100615.78;;;18.62;100.00
73516;BME280;61763;51.416;5.442;2023-07-31T11:28:05;100616.13;;;18.68;100.00
73516;BME280;61763;51.416;5.442;2023-07-31T11:30:33;100611.75;;;19.08;100.00
73516;BME280;61763;51.416;5.442;2023-07-31T11:33:01;100618.00;;;19.30;100.00
73516;BME280;61763;51.416;5.442;2023-07-31T11:35:29;100612.13;;;19.03;100.00
73516;BME280;61763;51.416;5.442;2023-07-31T11:37:56;100599.06;;;19.07;100.00
73516;BME280;61763;51.416;5.442;2023-07-31T11:40:21;100609.84;;;18.78;100.00
73516;BME280;61763;51.416;5.442;2023-07-31T11:42:47;100604.41;;;18.56;100.00
73516;BME280;61763;51.416;5.442;2023-07-31T11:45:12;100609.75;;;18.37;100.00
73516;BME280;61763;51.416;5.442;2023-07-31T11:47:38;100613.88;;;18.10;100.00
73516;BME280;61763;51.416;5.442;2023-07-31T11:50:06;100620.03;;;17.91;100.00
73516;BME280;61763;51.416;5.442;2023-07-31T11:52:41;100609.88;;;17.82;100.00
73516;BME280;61763;51.416;5.442;2023-07-31T11:55:08;100618.38;;;17.89;100.00
73516;BME280;61763;51.416;5.442;2023-07-31T11:57:39;100607.47;;;17.89;100.00
73516;BME280;61763;51.416;5.442;2023-07-31T12:00:07;100602.28;;;17.97;100.00
73516;BME280;61763;51.416;5.442;2023-07-31T12:02:33;100608.69;;;18.07;100.00
73516;BME280;61763;51.416;5.442;2023-07-31T12:04:59;100607.03;;;18.16;100.00
73516;BME280;61763;51.416;5.442;2023-07-31T12:07:25;100603.47;;;18.25;100.00
73516;BME280;61763;51.416;5.442;2023-07-31T12:09:54;100602.28;;;18.18;100.00
73516;BME280;61763;51.416;5.442;2023-07-31T12:12:25;100602.44;;;18.37;100.00
73516;BME280;61763;51.416;5.442;2023-07-31T12:14:51;100585.09;;;18.48;100.00
73516;BME280;61763;51.416;5.442;2023-07-31T12:17:18;100584.22;;;18.48;100.00
73516;BME280;61763;51.416;5.442;2023-07-31T12:19:44;100591.41;;;18.49;100.00
73516;BME280;61763;51.416;5.442;2023-07-31T12:22:14;100586.50;;;18.43;100.00
73516;BME280;61763;51.416;5.442;2023-07-31T12:24:42;100572.56;;;18.46;100.00
73516;BME280;61763;51.416;5.442;2023-07-31T12:27:13;100567.78;;;18.38;100.00
73516;BME280;61763;51.416;5.442;2023-07-31T12:29:41;100563.16;;;18.38;100.00
73516;BME280;61763;51.416;5.442;2023-07-31T12:32:26;100556.72;;;18.39;100.00
73516;BME280;61763;51.416;5.442;2023-07-31T12:34:59;100553.44;;;18.46;100.00
73516;BME280;61763;51.416;5.442;2023-07-31T12:37:24;100549.56;;;18.48;100.00
73516;BME280;61763;51.416;5.442;2023-07-31T12:39:50;100555.75;;;18.50;100.00
73516;BME280;61763;51.416;5.442;2023-07-31T12:42:17;100561.50;;;18.47;100.00
73516;BME280;61763;51.416;5.442;2023-07-31T12:44:43;100555.75;;;18.50;100.00
73516;BME280;61763;51.416;5.442;2023-07-31T12:47:08;100558.34;;;18.52;100.00
73516;BME280;61763;51.416;5.442;2023-07-31T12:49:33;100551.66;;;18.66;100.00
73516;BME280;61763;51.416;5.442;2023-07-31T12:51:59;100542.28;;;18.89;100.00
73516;BME280;61763;51.416;5.442;2023-07-31T12:54:24;100537.63;;;19.11;100.00